Komandarm Shcherbakov — UCTQ — position and weather

sailwx.info

Track history (hours):
 
Tides and Currents Weather Stations Pressure Air Temp Water Temp Dewpoint Dewpoint Depression Visibility Wind Speed Wind Dir Waves Ship Positions

Komandarm Shcherbakov

Last reported at 2017-Oct-22 06:17 UTC. Time now 2017-Oct-22 18:56 UTC.
Position N 45°08' E 036°28'.

Length 111 m; beam 17 m.

Type: Tanker. MMSI: 273359070.

Date/timePositionNaut miles runAvg speedWind from/ knotsBaromVisibWave heightAir tempDewpointWater temp
2017-Oct-22 06:17N 45°08' E 036°28'3 8.6
2017-Oct-22 05:57N 45°11' E 036°28'4 7.3
2017-Oct-22 05:27N 45°15' E 036°28'3 7.6
2017-Oct-22 05:00N 45°18' E 036°29'4 7.3
2017-Oct-22 04:30N 45°20' E 036°34'4 8.2
2017-Oct-22 04:00N 45°21' E 036°39'3 5.3
2017-Oct-22 03:30N 45°23' E 036°41'0 0.1
2017-Oct-22 03:00N 45°23' E 036°41'0 0.0
2017-Oct-22 02:30N 45°23' E 036°41'0 0.0
2017-Oct-22 02:00N 45°23' E 036°41'0 0.0
2017-Oct-22 01:30N 45°23' E 036°41'0 0.0
2017-Oct-22 01:00N 45°23' E 036°41'0 0.0
2017-Oct-22 00:30N 45°23' E 036°41'0 0.0
2017-Oct-22 00:00N 45°23' E 036°41'0 0.0
2017-Oct-21 23:30N 45°23' E 036°41'0 0.0
2017-Oct-21 23:00N 45°23' E 036°41'0 0.0
2017-Oct-21 22:27N 45°23' E 036°41'0 0.0
2017-Oct-21 22:00N 45°23' E 036°41'0 0.0
2017-Oct-21 21:30N 45°23' E 036°41'0 0.0
2017-Oct-21 21:00N 45°23' E 036°41'0 0.0
2017-Oct-21 20:24N 45°23' E 036°41'0 0.0
2017-Oct-21 20:00N 45°23' E 036°41'0 0.0
2017-Oct-21 19:30N 45°23' E 036°41'0 0.1
2017-Oct-21 19:00N 45°23' E 036°41'0 0.1
2017-Oct-21 18:30N 45°23' E 036°41'0 0.3
2017-Oct-21 18:00N 45°23' E 036°41'1 2.6
2017-Oct-21 17:30N 45°22' E 036°42'0 0.0
2017-Oct-21 17:00N 45°22' E 036°42'1 1.7
2017-Oct-21 16:30N 45°22' E 036°41'1 2.7
2017-Oct-21 16:01N 45°20' E 036°40'0 0.0
2017-Oct-21 15:30N 45°20' E 036°40'0 0.0
2017-Oct-21 15:00N 45°20' E 036°40'0 0.0
2017-Oct-21 14:00N 45°20' E 036°40'0 0.0
2017-Oct-21 13:30N 45°20' E 036°40'0 0.0
2017-Oct-21 13:00N 45°20' E 036°40'0 0.0
2017-Oct-21 12:30N 45°20' E 036°40'0 0.0
2017-Oct-21 12:00N 45°20' E 036°40'0 0.0
2017-Oct-21 11:30N 45°20' E 036°40'0 0.0
2017-Oct-21 11:00N 45°20' E 036°40'0 0.0
2017-Oct-21 10:30N 45°20' E 036°40'0 0.0
2017-Oct-21 10:00N 45°20' E 036°40'0 0.0
2017-Oct-21 09:30N 45°20' E 036°40'0 0.0
2017-Oct-21 09:00N 45°20' E 036°40'0 0.0
2017-Oct-21 08:30N 45°20' E 036°40'0 0.0
2017-Oct-21 08:00N 45°20' E 036°40'0 0.0
2017-Oct-21 07:27N 45°20' E 036°40'0 0.0
2017-Oct-21 07:00N 45°20' E 036°40'0 0.0
2017-Oct-21 06:30N 45°20' E 036°40'0 0.0
2017-Oct-21 06:00N 45°20' E 036°40'0 0.0
2017-Oct-21 05:30N 45°20' E 036°40'0 0.0
2017-Oct-21 05:00N 45°20' E 036°40'0 0.0
2017-Oct-21 04:30N 45°20' E 036°40'0 0.0
2017-Oct-21 04:00N 45°20' E 036°40'0 0.0
2017-Oct-21 03:30N 45°20' E 036°40'0 0.0
2017-Oct-21 03:00N 45°20' E 036°40'0 0.0
2017-Oct-21 02:30N 45°20' E 036°40'0 0.0
2017-Oct-21 02:00N 45°20' E 036°40'0 0.0
2017-Oct-21 01:30N 45°20' E 036°40'0 0.0
2017-Oct-21 01:00N 45°20' E 036°40'0 0.0
2017-Oct-21 00:30N 45°20' E 036°40'0 0.0
2017-Oct-21 00:00N 45°20' E 036°40'0 0.0
2017-Oct-20 23:30N 45°20' E 036°40'0 0.0
2017-Oct-20 23:00N 45°20' E 036°40'0 0.0
2017-Oct-20 22:30N 45°20' E 036°40'0 0.0
2017-Oct-20 22:00N 45°20' E 036°40'0 0.0
2017-Oct-20 21:30N 45°20' E 036°40'0 0.0
2017-Oct-20 21:00N 45°20' E 036°40'0 0.0
2017-Oct-20 20:30N 45°20' E 036°40'0 0.0
2017-Oct-20 20:00N 45°20' E 036°40'0 0.0
2017-Oct-20 19:30N 45°20' E 036°40'0 0.0
2017-Oct-20 19:00N 45°20' E 036°40'0 0.1
2017-Oct-20 18:30N 45°20' E 036°40'1 2.3
2017-Oct-20 18:00N 45°21' E 036°40'2 3.4
2017-Oct-20 17:30N 45°21' E 036°38'3 6.4
2017-Oct-20 17:00N 45°20' E 036°33'4 8.4
2017-Oct-20 16:30N 45°17' E 036°29'4 7.7
2017-Oct-20 16:01N 45°13' E 036°29'2 1.0
2017-Oct-20 14:00N 45°12' E 036°31'0 0.0
2017-Oct-20 13:30N 45°12' E 036°31'0 0.0
2017-Oct-20 12:57N 45°12' E 036°31'0 0.0
2017-Oct-20 12:27N 45°12' E 036°31'0 0.0
2017-Oct-20 12:00N 45°12' E 036°31'1 2.7
2017-Oct-20 11:28N 45°10' E 036°30'67 9.0
2017-Oct-20 04:02N 44°19' E 037°30'0 9.6
2017-Oct-20 04:00N 44°19' E 037°30'22 9.8
2017-Oct-20 01:45N 44°06' E 037°56'310.2
2017-Oct-20 01:28N 44°05' E 037°59'510.1
2017-Oct-20 01:00N 44°02' E 038°04'510.1
2017-Oct-20 00:30N 43°59' E 038°10'510.1
2017-Oct-20 00:00N 43°56' E 038°15'1710.0
2017-Oct-19 22:19N 43°46' E 038°34'4 9.9
2017-Oct-19 21:53N 43°44' E 038°39'  
2017-Oct-15 13:09N 45°09' E 036°28'2 8.0
2017-Oct-15 12:55N 45°11' E 036°28'3 7.3
2017-Oct-15 12:28N 45°15' E 036°28'4 7.7
2017-Oct-15 12:00N 45°18' E 036°29'4 8.6
2017-Oct-15 11:30N 45°20' E 036°35'4 8.2
2017-Oct-15 11:00N 45°22' E 036°40'2 3.4
2017-Oct-15 10:30N 45°23' E 036°42'0 0.0
2017-Oct-15 10:00N 45°23' E 036°42'0 0.0
2017-Oct-15 09:30N 45°23' E 036°42'0 0.0
2017-Oct-15 09:00N 45°23' E 036°42'0 0.0
2017-Oct-15 08:30N 45°23' E 036°42'0 0.0
2017-Oct-15 08:00N 45°23' E 036°42'0 0.0
2017-Oct-15 07:30N 45°23' E 036°42'0 0.0
2017-Oct-15 07:00N 45°23' E 036°42'0 0.0
2017-Oct-15 06:30N 45°23' E 036°42'0 0.0
2017-Oct-15 06:00N 45°23' E 036°41'0 0.0
2017-Oct-15 05:30N 45°23' E 036°41'0 0.0
2017-Oct-15 05:00N 45°23' E 036°41'0 0.0
2017-Oct-15 04:30N 45°23' E 036°41'0 0.0
2017-Oct-15 04:00N 45°23' E 036°41'0 0.0
2017-Oct-15 03:30N 45°23' E 036°42'0 0.0
2017-Oct-15 03:00N 45°23' E 036°41'0 0.0
2017-Oct-15 02:30N 45°23' E 036°41'0 0.0
2017-Oct-15 02:00N 45°23' E 036°41'0 0.0
2017-Oct-15 01:30N 45°23' E 036°41'0 0.0
2017-Oct-15 01:00N 45°23' E 036°42'0 0.0
2017-Oct-15 00:30N 45°23' E 036°41'0 0.0
2017-Oct-15 00:00N 45°23' E 036°41'0 0.0
2017-Oct-14 23:30N 45°23' E 036°42'1 1.6
2017-Oct-14 23:00N 45°23' E 036°41'2 4.3
2017-Oct-14 22:30N 45°20' E 036°40'0 0.3
2017-Oct-14 22:00N 45°20' E 036°40'0 0.0
2017-Oct-14 21:30N 45°20' E 036°40'0 0.0
2017-Oct-14 21:00N 45°20' E 036°40'0 0.0
2017-Oct-14 20:30N 45°20' E 036°40'0 0.0
2017-Oct-14 20:00N 45°20' E 036°40'0 0.0
2017-Oct-14 19:30N 45°20' E 036°40'0 0.0
2017-Oct-14 19:00N 45°20' E 036°40'0 0.0
2017-Oct-14 18:30N 45°20' E 036°40'0 0.0
2017-Oct-14 18:00N 45°20' E 036°40'0 0.0
2017-Oct-14 17:30N 45°20' E 036°40'0 0.0
2017-Oct-14 17:00N 45°20' E 036°40'0 0.0
2017-Oct-14 16:30N 45°20' E 036°40'0 0.0
2017-Oct-14 16:00N 45°20' E 036°40'0 0.0
2017-Oct-14 15:30N 45°20' E 036°40'0 0.0
2017-Oct-14 15:00N 45°20' E 036°40'0 0.0
2017-Oct-14 14:27N 45°20' E 036°40'0 0.0
2017-Oct-14 14:00N 45°20' E 036°40'0 0.0
2017-Oct-14 13:27N 45°20' E 036°40'0 0.0
2017-Oct-14 13:00N 45°20' E 036°40'0 0.0
2017-Oct-14 12:30N 45°20' E 036°40'0 0.0
2017-Oct-14 12:00N 45°20' E 036°40'0 0.0
2017-Oct-14 11:30N 45°20' E 036°40'0 0.0
2017-Oct-14 11:00N 45°20' E 036°40'0 0.0
2017-Oct-14 10:30N 45°20' E 036°40'0 0.0
2017-Oct-14 10:00N 45°20' E 036°40'0 0.0
2017-Oct-14 09:30N 45°20' E 036°40'0 0.0
2017-Oct-14 09:00N 45°20' E 036°40'0 0.0
2017-Oct-14 08:30N 45°20' E 036°40'0 0.0
2017-Oct-14 08:00N 45°20' E 036°40'0 0.0
2017-Oct-14 07:30N 45°20' E 036°40'0 0.0
2017-Oct-14 07:00N 45°20' E 036°40'0 0.0
2017-Oct-14 06:30N 45°20' E 036°40'0 0.0
2017-Oct-14 06:00N 45°20' E 036°40'0 0.0
2017-Oct-14 05:30N 45°20' E 036°40'0 0.0
2017-Oct-14 05:00N 45°20' E 036°40'0 0.0
2017-Oct-14 04:30N 45°20' E 036°40'0 0.0
2017-Oct-14 04:01N 45°20' E 036°40'0 0.0
2017-Oct-14 03:30N 45°20' E 036°40'0 0.0
2017-Oct-14 03:00N 45°20' E 036°40'0 0.0
2017-Oct-14 02:30N 45°20' E 036°40'0 0.0
2017-Oct-14 02:00N 45°20' E 036°40'0 0.0
2017-Oct-14 01:30N 45°20' E 036°40'0 0.0
2017-Oct-14 01:00N 45°20' E 036°40'0 0.0
2017-Oct-14 00:27N 45°20' E 036°40'0 0.0
2017-Oct-14 00:00N 45°20' E 036°40'0 0.0
2017-Oct-13 23:30N 45°20' E 036°40'0 0.0
2017-Oct-13 23:00N 45°20' E 036°40'0 0.0
2017-Oct-13 22:30N 45°20' E 036°40'0 0.0
2017-Oct-13 22:00N 45°20' E 036°40'0 0.0
2017-Oct-13 21:30N 45°20' E 036°40'0 0.0
2017-Oct-13 21:00N 45°20' E 036°40'0 0.0
2017-Oct-13 20:30N 45°20' E 036°40'0 0.0
2017-Oct-13 20:00N 45°20' E 036°40'1 2.2
2017-Oct-13 19:31N 45°21' E 036°40'0 0.6
2017-Oct-13 19:01N 45°21' E 036°40'3 5.9
2017-Oct-13 18:30N 45°20' E 036°36'4 9.0
2017-Oct-13 18:00N 45°19' E 036°30'4 7.3
2017-Oct-13 17:30N 45°15' E 036°28'3 5.5
2017-Oct-13 17:00N 45°12' E 036°28'3 6.2
2017-Oct-13 16:29N 45°10' E 036°32'1 0.8
2017-Oct-13 15:12N 45°10' E 036°33'0 0.0
2017-Oct-13 15:00N 45°10' E 036°33'0 0.0
2017-Oct-13 14:30N 45°10' E 036°33'0 0.0
2017-Oct-13 13:57N 45°10' E 036°33'0 0.0
2017-Oct-13 13:30N 45°10' E 036°33'0 0.0
2017-Oct-13 13:00N 45°10' E 036°33'0 0.0
2017-Oct-13 12:27N 45°10' E 036°33'0 0.0
2017-Oct-13 11:57N 45°10' E 036°33'0 0.0
2017-Oct-13 11:27N 45°10' E 036°33'0 0.0
2017-Oct-13 11:00N 45°10' E 036°33'0 0.0
2017-Oct-13 10:27N 45°10' E 036°33'0 0.0
2017-Oct-13 09:57N 45°10' E 036°33'0 0.0
2017-Oct-13 09:30N 45°10' E 036°33'0 0.0
2017-Oct-13 09:00N 45°10' E 036°33'0 0.0
2017-Oct-13 08:30N 45°10' E 036°33'0 0.0
2017-Oct-13 08:00N 45°10' E 036°33'0 0.1
2017-Oct-13 07:30N 45°10' E 036°33'0 0.1
2017-Oct-13 07:00N 45°10' E 036°33'0 0.0
2017-Oct-13 06:30N 45°10' E 036°33'0 0.0
2017-Oct-13 06:00N 45°10' E 036°33'0 0.0
2017-Oct-13 05:30N 45°10' E 036°33'0 0.0
2017-Oct-13 05:00N 45°10' E 036°33'0 0.0
2017-Oct-13 04:27N 45°10' E 036°33'0 0.0
2017-Oct-13 04:00N 45°10' E 036°33'0 0.0
2017-Oct-13 03:27N 45°10' E 036°33'0 0.1
2017-Oct-13 03:00N 45°10' E 036°33'0 0.0
2017-Oct-13 02:18N 45°10' E 036°33'0 0.0
2017-Oct-13 01:57N 45°10' E 036°33'0 0.0
2017-Oct-13 00:18N 45°10' E 036°33'0 0.0
2017-Oct-12 23:59N 45°10' E 036°33'0 0.0
2017-Oct-12 23:24N 45°10' E 036°33'0 0.0
2017-Oct-12 22:09N 45°10' E 036°33'0 0.0
2017-Oct-12 21:57N 45°10' E 036°33'0 0.0
2017-Oct-12 21:27N 45°10' E 036°33'0 0.0
2017-Oct-12 20:54N 45°10' E 036°33'0 0.0
2017-Oct-12 20:15N 45°10' E 036°33'0 0.0
2017-Oct-12 19:57N 45°10' E 036°33'0 0.0
2017-Oct-12 19:30N 45°10' E 036°33'0 0.0
2017-Oct-12 18:54N 45°10' E 036°33'0 0.0
2017-Oct-12 18:24N 45°10' E 036°33'0 0.0
2017-Oct-12 18:00N 45°10' E 036°33'0 0.0
2017-Oct-12 17:27N 45°10' E 036°33'0 0.0
2017-Oct-12 16:18N 45°10' E 036°33'0 0.0
2017-Oct-12 16:00N 45°10' E 036°33'0 0.0
2017-Oct-12 15:30N 45°10' E 036°33'0 0.0
2017-Oct-12 14:45N 45°10' E 036°33'0 0.0
2017-Oct-12 14:27N 45°10' E 036°33'0 0.0
2017-Oct-12 14:00N 45°10' E 036°33'0 0.0
2017-Oct-12 13:27N 45°10' E 036°33'0 0.0
2017-Oct-12 13:00N 45°10' E 036°33'0 0.0
2017-Oct-12 12:30N 45°10' E 036°33'0 0.0
2017-Oct-12 11:54N 45°10' E 036°33'0 0.0
2017-Oct-12 11:30N 45°10' E 036°33'0 0.0
2017-Oct-12 11:00N 45°10' E 036°33'0 0.0
2017-Oct-12 10:27N 45°10' E 036°33'0 0.0
2017-Oct-12 10:00N 45°10' E 036°33'0 0.0
2017-Oct-12 09:30N 45°10' E 036°33'0 0.0
2017-Oct-12 08:57N 45°10' E 036°33'0 0.0
2017-Oct-12 08:30N 45°10' E 036°33'0 0.0
2017-Oct-12 08:00N 45°10' E 036°33'0 0.0
2017-Oct-12 07:27N 45°10' E 036°33'0 0.0
2017-Oct-12 06:48N 45°10' E 036°33'0 0.0
2017-Oct-12 06:18N 45°10' E 036°33'  
Track history (hours):
 
Tides and Currents Weather Stations Pressure Air Temp Water Temp Dewpoint Dewpoint Depression Visibility Wind Speed Wind Dir Waves Ship Positions

Komandarm Shcherbakov

Last reported at 2017-Oct-22 06:17 UTC. Time now 2017-Oct-22 18:56 UTC.
Position N 45°08' E 036°28'.

Length 111 m; beam 17 m.

Type: Tanker. MMSI: 273359070.

Date/timePositionNaut miles runAvg speedWind from/ knotsBaromVisibWave heightAir tempDewpointWater temp
2017-Oct-22 06:17N 45°08' E 036°28'3 8.6
2017-Oct-22 05:57N 45°11' E 036°28'4 7.3
2017-Oct-22 05:27N 45°15' E 036°28'3 7.6
2017-Oct-22 05:00N 45°18' E 036°29'4 7.3
2017-Oct-22 04:30N 45°20' E 036°34'4 8.2
2017-Oct-22 04:00N 45°21' E 036°39'3 5.3
2017-Oct-22 03:30N 45°23' E 036°41'0 0.1
2017-Oct-22 03:00N 45°23' E 036°41'0 0.0
2017-Oct-22 02:30N 45°23' E 036°41'0 0.0
2017-Oct-22 02:00N 45°23' E 036°41'0 0.0
2017-Oct-22 01:30N 45°23' E 036°41'0 0.0
2017-Oct-22 01:00N 45°23' E 036°41'0 0.0
2017-Oct-22 00:30N 45°23' E 036°41'0 0.0
2017-Oct-22 00:00N 45°23' E 036°41'0 0.0
2017-Oct-21 23:30N 45°23' E 036°41'0 0.0
2017-Oct-21 23:00N 45°23' E 036°41'0 0.0
2017-Oct-21 22:27N 45°23' E 036°41'0 0.0
2017-Oct-21 22:00N 45°23' E 036°41'0 0.0
2017-Oct-21 21:30N 45°23' E 036°41'0 0.0
2017-Oct-21 21:00N 45°23' E 036°41'0 0.0
2017-Oct-21 20:24N 45°23' E 036°41'0 0.0
2017-Oct-21 20:00N 45°23' E 036°41'0 0.0
2017-Oct-21 19:30N 45°23' E 036°41'0 0.1
2017-Oct-21 19:00N 45°23' E 036°41'0 0.1
2017-Oct-21 18:30N 45°23' E 036°41'0 0.3
2017-Oct-21 18:00N 45°23' E 036°41'1 2.6
2017-Oct-21 17:30N 45°22' E 036°42'0 0.0
2017-Oct-21 17:00N 45°22' E 036°42'1 1.7
2017-Oct-21 16:30N 45°22' E 036°41'1 2.7
2017-Oct-21 16:01N 45°20' E 036°40'0 0.0
2017-Oct-21 15:30N 45°20' E 036°40'0 0.0
2017-Oct-21 15:00N 45°20' E 036°40'0 0.0
2017-Oct-21 14:00N 45°20' E 036°40'0 0.0
2017-Oct-21 13:30N 45°20' E 036°40'0 0.0
2017-Oct-21 13:00N 45°20' E 036°40'0 0.0
2017-Oct-21 12:30N 45°20' E 036°40'0 0.0
2017-Oct-21 12:00N 45°20' E 036°40'0 0.0
2017-Oct-21 11:30N 45°20' E 036°40'0 0.0
2017-Oct-21 11:00N 45°20' E 036°40'0 0.0
2017-Oct-21 10:30N 45°20' E 036°40'0 0.0
2017-Oct-21 10:00N 45°20' E 036°40'0 0.0
2017-Oct-21 09:30N 45°20' E 036°40'0 0.0
2017-Oct-21 09:00N 45°20' E 036°40'0 0.0
2017-Oct-21 08:30N 45°20' E 036°40'0 0.0
2017-Oct-21 08:00N 45°20' E 036°40'0 0.0
2017-Oct-21 07:27N 45°20' E 036°40'0 0.0
2017-Oct-21 07:00N 45°20' E 036°40'0 0.0
2017-Oct-21 06:30N 45°20' E 036°40'0 0.0
2017-Oct-21 06:00N 45°20' E 036°40'0 0.0
2017-Oct-21 05:30N 45°20' E 036°40'0 0.0
2017-Oct-21 05:00N 45°20' E 036°40'0 0.0
2017-Oct-21 04:30N 45°20' E 036°40'0 0.0
2017-Oct-21 04:00N 45°20' E 036°40'0 0.0
2017-Oct-21 03:30N 45°20' E 036°40'0 0.0
2017-Oct-21 03:00N 45°20' E 036°40'0 0.0
2017-Oct-21 02:30N 45°20' E 036°40'0 0.0
2017-Oct-21 02:00N 45°20' E 036°40'0 0.0
2017-Oct-21 01:30N 45°20' E 036°40'0 0.0
2017-Oct-21 01:00N 45°20' E 036°40'0 0.0
2017-Oct-21 00:30N 45°20' E 036°40'0 0.0
2017-Oct-21 00:00N 45°20' E 036°40'0 0.0
2017-Oct-20 23:30N 45°20' E 036°40'0 0.0
2017-Oct-20 23:00N 45°20' E 036°40'0 0.0
2017-Oct-20 22:30N 45°20' E 036°40'0 0.0
2017-Oct-20 22:00N 45°20' E 036°40'0 0.0
2017-Oct-20 21:30N 45°20' E 036°40'0 0.0
2017-Oct-20 21:00N 45°20' E 036°40'0 0.0
2017-Oct-20 20:30N 45°20' E 036°40'0 0.0
2017-Oct-20 20:00N 45°20' E 036°40'0 0.0
2017-Oct-20 19:30N 45°20' E 036°40'0 0.0
2017-Oct-20 19:00N 45°20' E 036°40'0 0.1
2017-Oct-20 18:30N 45°20' E 036°40'1 2.3
2017-Oct-20 18:00N 45°21' E 036°40'2 3.4
2017-Oct-20 17:30N 45°21' E 036°38'3 6.4
2017-Oct-20 17:00N 45°20' E 036°33'4 8.4
2017-Oct-20 16:30N 45°17' E 036°29'4 7.7
2017-Oct-20 16:01N 45°13' E 036°29'2 1.0
2017-Oct-20 14:00N 45°12' E 036°31'0 0.0
2017-Oct-20 13:30N 45°12' E 036°31'0 0.0
2017-Oct-20 12:57N 45°12' E 036°31'0 0.0
2017-Oct-20 12:27N 45°12' E 036°31'0 0.0
2017-Oct-20 12:00N 45°12' E 036°31'1 2.7
2017-Oct-20 11:28N 45°10' E 036°30'67 9.0
2017-Oct-20 04:02N 44°19' E 037°30'0 9.6
2017-Oct-20 04:00N 44°19' E 037°30'22 9.8
2017-Oct-20 01:45N 44°06' E 037°56'310.2
2017-Oct-20 01:28N 44°05' E 037°59'510.1
2017-Oct-20 01:00N 44°02' E 038°04'510.1
2017-Oct-20 00:30N 43°59' E 038°10'510.1
2017-Oct-20 00:00N 43°56' E 038°15'1710.0
2017-Oct-19 22:19N 43°46' E 038°34'4 9.9
2017-Oct-19 21:53N 43°44' E 038°39'  
2017-Oct-15 13:09N 45°09' E 036°28'2 8.0
2017-Oct-15 12:55N 45°11' E 036°28'3 7.3
2017-Oct-15 12:28N 45°15' E 036°28'4 7.7
2017-Oct-15 12:00N 45°18' E 036°29'4 8.6
2017-Oct-15 11:30N 45°20' E 036°35'4 8.2
2017-Oct-15 11:00N 45°22' E 036°40'2 3.4
2017-Oct-15 10:30N 45°23' E 036°42'0 0.0
2017-Oct-15 10:00N 45°23' E 036°42'0 0.0
2017-Oct-15 09:30N 45°23' E 036°42'0 0.0
2017-Oct-15 09:00N 45°23' E 036°42'0 0.0
2017-Oct-15 08:30N 45°23' E 036°42'0 0.0
2017-Oct-15 08:00N 45°23' E 036°42'0 0.0
2017-Oct-15 07:30N 45°23' E 036°42'0 0.0
2017-Oct-15 07:00N 45°23' E 036°42'0 0.0
2017-Oct-15 06:30N 45°23' E 036°42'0 0.0
2017-Oct-15 06:00N 45°23' E 036°41'0 0.0
2017-Oct-15 05:30N 45°23' E 036°41'0 0.0
2017-Oct-15 05:00N 45°23' E 036°41'0 0.0
2017-Oct-15 04:30N 45°23' E 036°41'0 0.0
2017-Oct-15 04:00N 45°23' E 036°41'0 0.0
2017-Oct-15 03:30N 45°23' E 036°42'0 0.0
2017-Oct-15 03:00N 45°23' E 036°41'0 0.0
2017-Oct-15 02:30N 45°23' E 036°41'0 0.0
2017-Oct-15 02:00N 45°23' E 036°41'0 0.0
2017-Oct-15 01:30N 45°23' E 036°41'0 0.0
2017-Oct-15 01:00N 45°23' E 036°42'0 0.0
2017-Oct-15 00:30N 45°23' E 036°41'0 0.0
2017-Oct-15 00:00N 45°23' E 036°41'0 0.0
2017-Oct-14 23:30N 45°23' E 036°42'1 1.6
2017-Oct-14 23:00N 45°23' E 036°41'2 4.3
2017-Oct-14 22:30N 45°20' E 036°40'0 0.3
2017-Oct-14 22:00N 45°20' E 036°40'0 0.0
2017-Oct-14 21:30N 45°20' E 036°40'0 0.0
2017-Oct-14 21:00N 45°20' E 036°40'0 0.0
2017-Oct-14 20:30N 45°20' E 036°40'0 0.0
2017-Oct-14 20:00N 45°20' E 036°40'0 0.0
2017-Oct-14 19:30N 45°20' E 036°40'0 0.0
2017-Oct-14 19:00N 45°20' E 036°40'0 0.0
2017-Oct-14 18:30N 45°20' E 036°40'0 0.0
2017-Oct-14 18:00N 45°20' E 036°40'0 0.0
2017-Oct-14 17:30N 45°20' E 036°40'0 0.0
2017-Oct-14 17:00N 45°20' E 036°40'0 0.0
2017-Oct-14 16:30N 45°20' E 036°40'0 0.0
2017-Oct-14 16:00N 45°20' E 036°40'0 0.0
2017-Oct-14 15:30N 45°20' E 036°40'0 0.0
2017-Oct-14 15:00N 45°20' E 036°40'0 0.0
2017-Oct-14 14:27N 45°20' E 036°40'0 0.0
2017-Oct-14 14:00N 45°20' E 036°40'0 0.0
2017-Oct-14 13:27N 45°20' E 036°40'0 0.0
2017-Oct-14 13:00N 45°20' E 036°40'0 0.0
2017-Oct-14 12:30N 45°20' E 036°40'0 0.0
2017-Oct-14 12:00N 45°20' E 036°40'0 0.0
2017-Oct-14 11:30N 45°20' E 036°40'0 0.0
2017-Oct-14 11:00N 45°20' E 036°40'0 0.0
2017-Oct-14 10:30N 45°20' E 036°40'0 0.0
2017-Oct-14 10:00N 45°20' E 036°40'0 0.0
2017-Oct-14 09:30N 45°20' E 036°40'0 0.0
2017-Oct-14 09:00N 45°20' E 036°40'0 0.0
2017-Oct-14 08:30N 45°20' E 036°40'0 0.0
2017-Oct-14 08:00N 45°20' E 036°40'0 0.0
2017-Oct-14 07:30N 45°20' E 036°40'0 0.0
2017-Oct-14 07:00N 45°20' E 036°40'0 0.0
2017-Oct-14 06:30N 45°20' E 036°40'0 0.0
2017-Oct-14 06:00N 45°20' E 036°40'0 0.0
2017-Oct-14 05:30N 45°20' E 036°40'0 0.0
2017-Oct-14 05:00N 45°20' E 036°40'0 0.0
2017-Oct-14 04:30N 45°20' E 036°40'0 0.0
2017-Oct-14 04:01N 45°20' E 036°40'0 0.0
2017-Oct-14 03:30N 45°20' E 036°40'0 0.0
2017-Oct-14 03:00N 45°20' E 036°40'0 0.0
2017-Oct-14 02:30N 45°20' E 036°40'0 0.0
2017-Oct-14 02:00N 45°20' E 036°40'0 0.0
2017-Oct-14 01:30N 45°20' E 036°40'0 0.0
2017-Oct-14 01:00N 45°20' E 036°40'0 0.0
2017-Oct-14 00:27N 45°20' E 036°40'0 0.0
2017-Oct-14 00:00N 45°20' E 036°40'0 0.0
2017-Oct-13 23:30N 45°20' E 036°40'0 0.0
2017-Oct-13 23:00N 45°20' E 036°40'0 0.0
2017-Oct-13 22:30N 45°20' E 036°40'0 0.0
2017-Oct-13 22:00N 45°20' E 036°40'0 0.0
2017-Oct-13 21:30N 45°20' E 036°40'0 0.0
2017-Oct-13 21:00N 45°20' E 036°40'0 0.0
2017-Oct-13 20:30N 45°20' E 036°40'0 0.0
2017-Oct-13 20:00N 45°20' E 036°40'1 2.2
2017-Oct-13 19:31N 45°21' E 036°40'0 0.6
2017-Oct-13 19:01N 45°21' E 036°40'3 5.9
2017-Oct-13 18:30N 45°20' E 036°36'4 9.0
2017-Oct-13 18:00N 45°19' E 036°30'4 7.3
2017-Oct-13 17:30N 45°15' E 036°28'3 5.5
2017-Oct-13 17:00N 45°12' E 036°28'3 6.2
2017-Oct-13 16:29N 45°10' E 036°32'1 0.8
2017-Oct-13 15:12N 45°10' E 036°33'0 0.0
2017-Oct-13 15:00N 45°10' E 036°33'0 0.0
2017-Oct-13 14:30N 45°10' E 036°33'0 0.0
2017-Oct-13 13:57N 45°10' E 036°33'0 0.0
2017-Oct-13 13:30N 45°10' E 036°33'0 0.0
2017-Oct-13 13:00N 45°10' E 036°33'0 0.0
2017-Oct-13 12:27N 45°10' E 036°33'0 0.0
2017-Oct-13 11:57N 45°10' E 036°33'0 0.0
2017-Oct-13 11:27N 45°10' E 036°33'0 0.0
2017-Oct-13 11:00N 45°10' E 036°33'0 0.0
2017-Oct-13 10:27N 45°10' E 036°33'0 0.0
2017-Oct-13 09:57N 45°10' E 036°33'0 0.0
2017-Oct-13 09:30N 45°10' E 036°33'0 0.0
2017-Oct-13 09:00N 45°10' E 036°33'0 0.0
2017-Oct-13 08:30N 45°10' E 036°33'0 0.0
2017-Oct-13 08:00N 45°10' E 036°33'0 0.1
2017-Oct-13 07:30N 45°10' E 036°33'0 0.1
2017-Oct-13 07:00N 45°10' E 036°33'0 0.0
2017-Oct-13 06:30N 45°10' E 036°33'0 0.0
2017-Oct-13 06:00N 45°10' E 036°33'0 0.0
2017-Oct-13 05:30N 45°10' E 036°33'0 0.0
2017-Oct-13 05:00N 45°10' E 036°33'0 0.0
2017-Oct-13 04:27N 45°10' E 036°33'0 0.0
2017-Oct-13 04:00N 45°10' E 036°33'0 0.0
2017-Oct-13 03:27N 45°10' E 036°33'0 0.1
2017-Oct-13 03:00N 45°10' E 036°33'0 0.0
2017-Oct-13 02:18N 45°10' E 036°33'0 0.0
2017-Oct-13 01:57N 45°10' E 036°33'0 0.0
2017-Oct-13 00:18N 45°10' E 036°33'0 0.0
2017-Oct-12 23:59N 45°10' E 036°33'0 0.0
2017-Oct-12 23:24N 45°10' E 036°33'0 0.0
2017-Oct-12 22:09N 45°10' E 036°33'0 0.0
2017-Oct-12 21:57N 45°10' E 036°33'0 0.0
2017-Oct-12 21:27N 45°10' E 036°33'0 0.0
2017-Oct-12 20:54N 45°10' E 036°33'0 0.0
2017-Oct-12 20:15N 45°10' E 036°33'0 0.0
2017-Oct-12 19:57N 45°10' E 036°33'0 0.0
2017-Oct-12 19:30N 45°10' E 036°33'0 0.0
2017-Oct-12 18:54N 45°10' E 036°33'0 0.0
2017-Oct-12 18:24N 45°10' E 036°33'0 0.0
2017-Oct-12 18:00N 45°10' E 036°33'0 0.0
2017-Oct-12 17:27N 45°10' E 036°33'0 0.0
2017-Oct-12 16:18N 45°10' E 036°33'0 0.0
2017-Oct-12 16:00N 45°10' E 036°33'0 0.0
2017-Oct-12 15:30N 45°10' E 036°33'0 0.0
2017-Oct-12 14:45N 45°10' E 036°33'0 0.0
2017-Oct-12 14:27N 45°10' E 036°33'0 0.0
2017-Oct-12 14:00N 45°10' E 036°33'0 0.0
2017-Oct-12 13:27N 45°10' E 036°33'0 0.0
2017-Oct-12 13:00N 45°10' E 036°33'0 0.0
2017-Oct-12 12:30N 45°10' E 036°33'0 0.0
2017-Oct-12 11:54N 45°10' E 036°33'0 0.0
2017-Oct-12 11:30N 45°10' E 036°33'0 0.0
2017-Oct-12 11:00N 45°10' E 036°33'0 0.0
2017-Oct-12 10:27N 45°10' E 036°33'0 0.0
2017-Oct-12 10:00N 45°10' E 036°33'0 0.0
2017-Oct-12 09:30N 45°10' E 036°33'0 0.0
2017-Oct-12 08:57N 45°10' E 036°33'0 0.0
2017-Oct-12 08:30N 45°10' E 036°33'0 0.0
2017-Oct-12 08:00N 45°10' E 036°33'0 0.0
2017-Oct-12 07:27N 45°10' E 036°33'0 0.0
2017-Oct-12 06:48N 45°10' E 036°33'0 0.0
2017-Oct-12 06:18N 45°10' E 036°33'  

Dump ship's entire track history